createdAt,value
2023-04-18T00:02:10.431Z,75.97
2023-04-18T00:04:37.369Z,75.95
2023-04-18T00:07:07.724Z,75.79
2023-04-18T00:09:34.472Z,75.40
2023-04-18T00:12:02.100Z,74.83
2023-04-18T00:14:30.196Z,75.38
2023-04-18T00:16:57.374Z,75.05
2023-04-18T00:19:24.150Z,74.75
2023-04-18T00:21:53.216Z,74.34
2023-04-18T00:24:20.154Z,74.02
2023-04-18T00:26:46.950Z,73.36
2023-04-18T00:29:15.569Z,72.99
2023-04-18T00:31:51.249Z,72.29
2023-04-18T00:34:18.088Z,71.89
2023-04-18T00:36:44.786Z,71.15
2023-04-18T00:39:11.470Z,70.40
2023-04-18T00:41:38.125Z,70.19
2023-04-18T00:44:04.823Z,70.25
2023-04-18T00:46:31.540Z,69.83
2023-04-18T00:48:59.469Z,70.02
2023-04-18T00:51:26.481Z,70.43
2023-04-18T00:53:54.110Z,70.79
2023-04-18T00:56:23.815Z,71.46
2023-04-18T00:58:50.647Z,71.66
2023-04-18T01:01:18.208Z,72.29
2023-04-18T01:03:45.146Z,72.18
2023-04-18T01:06:11.966Z,72.37
2023-04-18T01:08:38.772Z,71.77
2023-04-18T01:11:05.521Z,71.13
2023-04-18T01:13:32.170Z,71.00
2023-04-18T01:16:01.110Z,70.20
2023-04-18T01:18:27.888Z,70.16
2023-04-18T01:20:57.147Z,69.98
2023-04-18T01:23:25.033Z,69.45
2023-04-18T01:26:02.126Z,69.13
2023-04-18T01:28:29.919Z,68.84
2023-04-18T01:30:56.561Z,68.71
2023-04-18T01:33:23.470Z,68.41
2023-04-18T01:35:53.349Z,67.83
2023-04-18T01:38:19.901Z,67.61
2023-04-18T01:40:47.093Z,67.41
2023-04-18T01:43:13.783Z,66.96
2023-04-18T01:45:40.517Z,66.79
2023-04-18T01:48:07.357Z,66.71
2023-04-18T01:50:34.063Z,66.78
2023-04-18T01:53:00.663Z,66.56
2023-04-18T01:55:27.472Z,65.50
2023-04-18T01:57:54.078Z,65.77
2023-04-18T02:00:21.382Z,65.93
2023-04-18T02:02:50.400Z,65.51
2023-04-18T02:05:26.237Z,65.70
2023-04-18T02:07:53.518Z,65.60
2023-04-18T02:10:20.398Z,65.46
2023-04-18T02:12:47.189Z,65.77
2023-04-18T02:15:13.939Z,65.98
2023-04-18T02:17:41.737Z,65.62
2023-04-18T02:20:09.477Z,66.03
2023-04-18T02:22:38.153Z,65.62
2023-04-18T02:25:05.120Z,65.30
2023-04-18T02:27:31.772Z,65.69
2023-04-18T02:29:58.327Z,65.80
2023-04-18T02:32:25.025Z,66.11
2023-04-18T02:34:51.691Z,66.88
2023-04-18T02:37:18.287Z,65.90
2023-04-18T02:39:44.890Z,65.23
2023-04-18T02:42:11.611Z,65.59
2023-04-18T02:44:38.332Z,66.15
2023-04-18T02:47:07.584Z,65.56
2023-04-18T02:49:36.964Z,65.53
2023-04-18T02:52:13.741Z,65.79
2023-04-18T02:54:40.573Z,65.81
2023-04-18T02:57:09.694Z,65.73
2023-04-18T02:59:54.710Z,65.65
2023-04-18T03:02:23.298Z,66.12
2023-04-18T03:04:50.039Z,65.40
2023-04-18T03:07:19.030Z,65.65
2023-04-18T03:09:45.773Z,65.58
2023-04-18T03:12:12.396Z,65.30
2023-04-18T03:14:39.158Z,65.75
2023-04-18T03:17:06.151Z,65.10
2023-04-18T03:19:32.793Z,65.60
2023-04-18T03:22:02.697Z,65.50
2023-04-18T03:24:29.303Z,65.59
2023-04-18T03:26:55.957Z,65.81
2023-04-18T03:29:22.673Z,65.55
2023-04-18T03:31:51.550Z,65.88
2023-04-18T03:34:18.198Z,65.92
2023-04-18T03:36:48.384Z,65.68
2023-04-18T03:39:17.599Z,65.07
2023-04-18T03:41:53.559Z,65.47
2023-04-18T03:44:26.285Z,65.76
2023-04-18T03:46:54.175Z,65.77
2023-04-18T03:49:20.840Z,66.18
2023-04-18T03:51:50.365Z,65.91
2023-04-18T03:54:17.433Z,66.15
2023-04-18T03:56:45.155Z,66.00
2023-04-18T03:59:12.214Z,66.29
2023-04-18T04:01:38.888Z,66.34
2023-04-18T04:04:05.940Z,66.12
2023-04-18T04:06:33.802Z,66.69
2023-04-18T04:09:00.953Z,66.75
2023-04-18T04:11:27.762Z,66.99
2023-04-18T04:13:54.441Z,66.79
2023-04-18T04:16:21.210Z,66.81
2023-04-18T04:18:49.105Z,67.19
2023-04-18T04:21:15.893Z,67.15
2023-04-18T04:23:43.026Z,67.56
2023-04-18T04:26:10.048Z,67.63
2023-04-18T04:28:37.742Z,68.01
2023-04-18T04:31:06.900Z,67.26
2023-04-18T04:33:33.583Z,67.39
2023-04-18T04:36:01.299Z,67.33
2023-04-18T04:38:31.044Z,67.56
2023-04-18T04:40:59.457Z,67.75
2023-04-18T04:43:28.635Z,68.01
2023-04-18T04:45:55.935Z,68.08
2023-04-18T04:48:31.175Z,68.03
2023-04-18T04:50:59.842Z,68.42
2023-04-18T04:53:32.543Z,68.03
2023-04-18T04:56:01.837Z,68.45
2023-04-18T04:58:31.475Z,68.64
2023-04-18T05:00:58.214Z,68.95
2023-04-18T05:03:24.990Z,68.95
2023-04-18T05:06:12.296Z,68.95
2023-04-18T05:08:38.926Z,69.38
2023-04-18T05:11:05.609Z,69.07
2023-04-18T05:13:32.405Z,69.21
2023-04-18T05:15:59.349Z,69.18
2023-04-18T05:18:26.003Z,69.63
2023-04-18T05:20:52.737Z,69.58
2023-04-18T05:23:19.389Z,69.64
2023-04-18T05:25:46.004Z,69.99
2023-04-18T05:28:12.466Z,70.30
2023-04-18T05:30:40.132Z,69.82
2023-04-18T05:33:06.785Z,70.29
2023-04-18T05:35:33.538Z,70.11
2023-04-18T05:38:00.151Z,70.15
2023-04-18T05:40:28.359Z,70.64
2023-04-18T05:42:56.069Z,70.64
2023-04-18T05:45:22.702Z,71.30
2023-04-18T05:47:49.324Z,70.72
2023-04-18T05:50:15.963Z,71.34
2023-04-18T05:52:42.602Z,71.09
2023-04-18T05:55:09.668Z,71.30
2023-04-18T05:57:36.399Z,71.39
2023-04-18T06:00:06.276Z,71.56
2023-04-18T06:02:32.994Z,71.64
2023-04-18T06:04:59.900Z,72.21
2023-04-18T06:07:26.622Z,71.83
2023-04-18T06:09:56.306Z,72.06
2023-04-18T06:12:22.803Z,71.51
2023-04-18T06:14:49.781Z,72.06
2023-04-18T06:17:16.385Z,72.10
2023-04-18T06:20:13.088Z,71.96
2023-04-18T06:29:56.043Z,71.74
2023-04-18T06:39:15.240Z,71.94
2023-04-18T06:41:41.850Z,71.36
2023-04-18T06:44:08.358Z,71.08
2023-04-18T06:46:34.962Z,70.67
2023-04-18T06:49:01.744Z,70.66
2023-04-18T06:51:29.053Z,71.17
2023-04-18T06:53:56.907Z,70.68
2023-04-18T06:56:23.585Z,70.59
2023-04-18T06:58:51.684Z,70.45
2023-04-18T07:01:18.762Z,70.22
2023-04-18T07:03:45.407Z,70.51
2023-04-18T07:06:12.036Z,71.25
2023-04-18T07:08:38.678Z,70.38
2023-04-18T07:11:06.603Z,70.49
2023-04-18T07:13:33.223Z,69.92
2023-04-18T07:15:59.816Z,70.26
2023-04-18T07:18:36.513Z,69.79
2023-04-18T07:21:07.751Z,70.09
2023-04-18T07:23:35.100Z,70.21
2023-04-18T07:26:02.937Z,70.13
2023-04-18T07:28:31.177Z,69.84
2023-04-18T07:30:58.461Z,70.08
2023-04-18T07:33:29.172Z,70.21
2023-04-18T07:35:55.776Z,70.53
2023-04-18T07:38:22.362Z,69.34
2023-04-18T07:40:59.801Z,69.82
2023-04-18T07:43:26.921Z,69.20
2023-04-18T07:45:54.275Z,69.52
2023-04-18T07:48:22.582Z,69.84
2023-04-18T07:50:49.415Z,69.11
2023-04-18T07:53:19.340Z,68.84
2023-04-18T07:55:46.650Z,68.62
2023-04-18T07:58:13.485Z,68.84
2023-04-18T08:00:42.349Z,68.44
2023-04-18T08:03:11.026Z,67.93
2023-04-18T08:05:39.964Z,67.95
2023-04-18T08:08:07.847Z,67.08
2023-04-18T08:10:34.899Z,66.87
2023-04-18T08:13:03.061Z,67.41
2023-04-18T08:15:32.346Z,66.67
2023-04-18T08:17:59.705Z,67.03
2023-04-18T08:20:26.396Z,66.65
2023-04-18T08:23:06.258Z,66.41
2023-04-18T08:25:36.376Z,66.29
2023-04-18T08:28:04.072Z,66.35
2023-04-18T08:30:30.928Z,66.69
2023-04-18T08:32:57.691Z,66.70
2023-04-18T09:15:32.266Z,65.35
2023-04-18T09:18:03.110Z,63.94
2023-04-18T09:20:35.237Z,64.12
2023-04-18T09:23:04.513Z,64.17
2023-04-18T09:25:42.020Z,64.60
2023-04-18T09:28:33.212Z,63.68
2023-04-18T09:31:11.967Z,63.88
2023-04-18T09:33:43.050Z,64.12
2023-04-18T09:36:19.076Z,63.49
2023-04-18T09:38:46.657Z,62.35
2023-04-18T09:41:15.896Z,61.85
2023-04-18T09:43:48.236Z,61.96
2023-04-18T09:46:15.405Z,61.24
2023-04-18T09:48:42.037Z,61.77
2023-04-18T09:51:11.392Z,62.02
2023-04-18T09:53:39.953Z,63.32
2023-04-18T09:56:10.704Z,63.34
2023-04-18T09:58:41.452Z,63.09
2023-04-18T10:01:08.553Z,62.66
2023-04-18T10:03:44.379Z,63.01
2023-04-18T10:06:11.837Z,62.93
2023-04-18T10:08:40.093Z,63.27
2023-04-18T10:11:06.642Z,63.53
2023-04-18T10:13:36.608Z,63.36
2023-04-18T10:16:05.378Z,63.63
2023-04-18T10:18:32.140Z,63.42
2023-04-18T10:21:04.686Z,63.32
2023-04-18T10:23:31.478Z,63.57
2023-04-18T10:25:59.350Z,63.19
2023-04-18T10:28:27.527Z,63.31
2023-04-18T10:31:03.594Z,63.11
2023-04-18T10:33:33.837Z,63.33
2023-04-18T10:36:01.820Z,62.69
2023-04-18T10:38:28.663Z,62.45
2023-04-18T10:41:22.813Z,63.01
2023-04-18T10:44:09.151Z,62.42
2023-04-18T10:46:37.421Z,61.52
2023-04-18T10:49:26.593Z,61.33
2023-04-18T10:51:55.997Z,59.41
2023-04-18T10:54:30.746Z,59.47
2023-04-18T10:57:01.686Z,58.90
2023-04-18T10:59:30.371Z,58.71
2023-04-18T11:02:05.100Z,57.48
2023-04-18T11:04:31.811Z,58.01
2023-04-18T11:06:58.722Z,57.04
2023-04-18T11:09:25.597Z,57.22
2023-04-18T11:12:09.406Z,56.88
2023-04-18T11:14:41.676Z,57.26
2023-04-18T11:17:24.622Z,56.91
2023-04-18T11:19:59.112Z,57.53
2023-04-18T11:22:25.914Z,57.74
2023-04-18T11:24:57.209Z,56.78
2023-04-18T11:27:25.840Z,56.48
2023-04-18T11:29:54.508Z,56.86
2023-04-18T11:32:24.625Z,57.22
2023-04-18T11:34:53.446Z,57.17
2023-04-18T11:37:20.629Z,56.68
2023-04-18T11:39:47.342Z,56.19
2023-04-18T11:42:13.884Z,54.73
2023-04-18T11:44:42.657Z,55.80
2023-04-18T11:47:24.317Z,54.81
2023-04-18T11:50:03.084Z,54.75
2023-04-18T11:52:31.674Z,54.53
2023-04-18T11:55:19.948Z,55.24
2023-04-18T11:57:52.043Z,55.80
2023-04-18T12:00:22.196Z,55.92
2023-04-18T12:02:51.178Z,56.56
2023-04-18T12:05:25.970Z,56.86
2023-04-18T12:07:55.897Z,56.58
2023-04-18T12:10:28.164Z,56.60
2023-04-18T12:12:56.558Z,57.51
2023-04-18T12:15:27.144Z,56.88
2023-04-18T12:18:00.689Z,57.40
2023-04-18T12:20:46.636Z,56.77
2023-04-18T12:23:40.273Z,57.36
2023-04-18T12:28:54.077Z,57.38
2023-04-18T12:31:22.503Z,57.45
2023-04-18T12:33:50.493Z,57.44
2023-04-18T12:36:38.555Z,58.35
2023-04-18T12:39:07.924Z,58.17
2023-04-18T12:41:34.771Z,58.61
2023-04-18T12:44:01.531Z,59.01
2023-04-18T12:46:31.710Z,58.48
2023-04-18T12:48:58.540Z,58.37
2023-04-18T12:57:28.641Z,59.78
2023-04-18T13:00:25.172Z,59.89
2023-04-18T13:03:13.789Z,60.59
2023-04-18T13:05:41.041Z,60.17
2023-04-18T13:08:16.844Z,59.73
2023-04-18T13:10:48.472Z,59.47
2023-04-18T13:18:11.556Z,60.43
2023-04-18T13:19:42.273Z,60.20
2023-04-18T13:22:09.715Z,60.75
2023-04-18T13:24:37.244Z,60.50
2023-04-18T13:27:10.632Z,60.51
2023-04-18T13:30:28.214Z,60.29
2023-04-18T13:32:44.350Z,60.86
2023-04-18T13:35:26.627Z,60.47
2023-04-18T13:40:38.888Z,60.11
2023-04-18T13:43:32.342Z,59.84
2023-04-18T13:46:01.544Z,59.88
2023-04-18T13:56:59.247Z,59.21
2023-04-18T14:05:41.074Z,57.57
2023-04-18T14:32:03.686Z,59.55
2023-04-18T14:39:05.153Z,58.37
2023-04-18T14:44:45.763Z,57.26
2023-04-18T14:47:47.028Z,56.30
2023-04-18T14:51:43.879Z,56.94
2023-04-18T15:35:17.560Z,55.74
2023-04-18T15:37:55.220Z,54.86
2023-04-18T15:41:08.058Z,54.26
2023-04-18T15:43:34.795Z,54.68
2023-04-18T15:47:16.655Z,55.08
2023-04-18T15:54:36.454Z,55.65
2023-04-18T16:05:31.114Z,55.14
2023-04-18T16:17:09.007Z,55.56
2023-04-18T16:23:05.464Z,55.79
2023-04-18T16:26:03.250Z,55.59
2023-04-18T16:39:48.210Z,56.05
2023-04-18T17:17:34.709Z,57.01
2023-04-18T17:27:51.906Z,56.79
2023-04-18T17:45:44.171Z,57.76
2023-04-18T17:48:10.832Z,57.52
2023-04-18T17:53:32.166Z,57.32
2023-04-18T17:56:00.905Z,57.63
2023-04-18T17:58:28.305Z,57.74
2023-04-18T18:01:09.122Z,57.91
2023-04-18T18:03:41.062Z,58.25
2023-04-18T18:06:08.060Z,58.86
2023-04-18T18:08:37.224Z,58.85
2023-04-18T18:14:16.565Z,59.12
2023-04-18T18:20:02.433Z,60.57
2023-04-18T18:22:32.266Z,60.58
2023-04-18T18:24:59.093Z,61.86
2023-04-18T18:27:50.930Z,60.69
2023-04-18T18:30:15.516Z,61.07
2023-04-18T18:32:42.241Z,61.35
2023-04-18T18:35:11.827Z,61.94
2023-04-18T18:37:51.018Z,61.90
2023-04-18T18:40:18.685Z,61.95
2023-04-18T18:42:56.935Z,62.58
2023-04-18T18:45:23.805Z,62.53
2023-04-18T18:47:53.525Z,62.57
2023-04-18T18:50:20.291Z,63.72
2023-04-18T18:52:47.123Z,63.07
2023-04-18T18:55:13.830Z,63.86
2023-04-18T18:57:40.566Z,62.16
2023-04-18T19:00:12.270Z,62.18
2023-04-18T19:02:39.812Z,62.25
2023-04-18T19:05:07.163Z,61.75
2023-04-18T19:07:33.785Z,61.96
2023-04-18T19:10:01.664Z,62.15
2023-04-18T19:12:29.155Z,62.46
2023-04-18T19:14:55.851Z,62.68
2023-04-18T19:17:24.865Z,62.71
2023-04-18T19:20:02.485Z,62.55
2023-04-18T19:22:29.999Z,62.15
